createdAt,value
2022-07-29T00:01:42.801Z,1.77
2022-07-29T00:04:10.629Z,1.60
2022-07-29T00:06:38.033Z,1.70
2022-07-29T00:09:05.588Z,1.40
2022-07-29T00:11:32.974Z,1.40
2022-07-29T00:14:00.309Z,1.30
2022-07-29T00:16:27.769Z,2.17
2022-07-29T00:18:55.185Z,1.85
2022-07-29T00:21:22.481Z,1.77
2022-07-29T00:23:49.843Z,1.35
2022-07-29T00:26:17.178Z,1.67
2022-07-29T00:28:44.565Z,1.60
2022-07-29T00:31:11.957Z,1.45
2022-07-29T00:33:39.419Z,1.65
2022-07-29T00:36:06.977Z,2.58
2022-07-29T00:38:34.328Z,1.40
2022-07-29T00:41:01.724Z,1.98
2022-07-29T00:43:29.064Z,1.83
2022-07-29T00:45:56.559Z,1.92
2022-07-29T00:48:23.908Z,1.85
2022-07-29T00:50:51.581Z,1.77
2022-07-29T00:53:20.170Z,2.05
2022-07-29T00:55:47.992Z,1.83
2022-07-29T00:58:15.544Z,1.40
2022-07-29T01:00:43.659Z,1.80
2022-07-29T01:03:13.058Z,1.58
2022-07-29T01:05:50.160Z,2.17
2022-07-29T01:08:20.987Z,1.92
2022-07-29T01:10:50.092Z,1.50
2022-07-29T01:13:17.927Z,1.73
2022-07-29T01:15:50.437Z,2.00
2022-07-29T01:18:23.647Z,1.42
2022-07-29T01:21:13.396Z,1.75
2022-07-29T01:23:53.239Z,1.60
2022-07-29T01:26:50.203Z,1.50
2022-07-29T01:29:38.667Z,1.67
2022-07-29T01:32:29.542Z,1.55
2022-07-29T01:35:02.994Z,1.88
2022-07-29T01:37:38.942Z,2.08
2022-07-29T01:40:12.670Z,1.20
2022-07-29T01:42:44.468Z,1.40
2022-07-29T01:45:41.369Z,1.77
2022-07-29T01:48:20.744Z,1.60
2022-07-29T01:50:57.395Z,1.20
2022-07-29T01:53:38.659Z,1.40
2022-07-29T01:56:09.908Z,1.70
2022-07-29T01:58:40.732Z,2.95
2022-07-29T02:01:10.778Z,1.25
2022-07-29T02:03:40.095Z,1.40
2022-07-29T02:06:10.318Z,1.50
2022-07-29T02:08:40.154Z,1.17
2022-07-29T02:11:09.206Z,1.83
2022-07-29T02:13:38.647Z,1.42
2022-07-29T02:16:08.447Z,1.50
2022-07-29T02:18:38.158Z,1.63
2022-07-29T02:21:06.227Z,1.58
2022-07-29T02:23:50.613Z,1.70
2022-07-29T02:26:21.327Z,1.40
2022-07-29T02:28:50.948Z,2.22
2022-07-29T02:31:22.753Z,1.55
2022-07-29T02:33:50.883Z,1.63
2022-07-29T02:36:20.032Z,1.42
2022-07-29T02:38:53.608Z,1.65
2022-07-29T02:41:47.387Z,1.30
2022-07-29T02:44:18.540Z,1.40
2022-07-29T02:47:09.092Z,1.27
2022-07-29T02:49:44.297Z,1.45
2022-07-29T02:52:22.973Z,1.50
2022-07-29T02:55:03.078Z,1.33
2022-07-29T02:57:54.096Z,1.40
2022-07-29T03:00:26.412Z,1.80
2022-07-29T03:02:55.810Z,1.55
2022-07-29T03:05:23.973Z,1.10
2022-07-29T03:07:56.577Z,1.20
2022-07-29T03:10:26.666Z,1.20
2022-07-29T03:12:56.276Z,1.45
2022-07-29T03:15:24.786Z,1.40
2022-07-29T03:17:53.617Z,1.42
2022-07-29T03:20:21.648Z,1.27
2022-07-29T03:22:49.127Z,1.23
2022-07-29T03:25:18.368Z,1.27
2022-07-29T03:27:46.495Z,1.55
2022-07-29T03:30:18.173Z,1.25
2022-07-29T03:32:53.419Z,1.30
2022-07-29T03:35:21.887Z,1.38
2022-07-29T03:37:49.659Z,2.10
2022-07-29T03:40:25.587Z,2.00
2022-07-29T03:42:55.815Z,1.75
2022-07-29T03:45:25.572Z,2.00
2022-07-29T03:48:01.099Z,2.10
2022-07-29T03:50:31.231Z,2.28
2022-07-29T03:52:59.098Z,2.40
2022-07-29T03:55:29.412Z,1.85
2022-07-29T03:57:58.312Z,2.17
2022-07-29T04:00:26.418Z,2.33
2022-07-29T04:02:53.933Z,2.75
2022-07-29T04:05:21.411Z,2.28
2022-07-29T04:07:49.704Z,1.92
2022-07-29T04:10:18.046Z,1.77
2022-07-29T04:12:58.075Z,2.50
2022-07-29T04:15:25.576Z,2.35
2022-07-29T04:17:52.938Z,2.30
2022-07-29T04:20:20.380Z,2.15
2022-07-29T04:22:47.692Z,2.15
2022-07-29T04:25:15.015Z,2.70
2022-07-29T04:28:00.983Z,3.00
2022-07-29T04:30:29.037Z,2.30
2022-07-29T04:32:56.370Z,2.42
2022-07-29T04:35:23.803Z,2.45
2022-07-29T04:37:51.093Z,2.47
2022-07-29T04:40:18.512Z,2.42
2022-07-29T04:42:47.294Z,2.47
2022-07-29T04:45:16.114Z,2.95
2022-07-29T04:47:43.636Z,2.30
2022-07-29T04:50:11.513Z,2.22
2022-07-29T04:52:38.904Z,2.70
2022-07-29T04:55:06.840Z,3.28
2022-07-29T04:57:34.165Z,2.65
2022-07-29T05:00:01.966Z,2.83
2022-07-29T05:02:29.415Z,2.53
2022-07-29T05:04:56.833Z,3.95
2022-07-29T05:07:24.229Z,2.60
2022-07-29T05:09:51.614Z,3.20
2022-07-29T05:12:18.915Z,2.97
2022-07-29T05:14:46.249Z,3.42
2022-07-29T05:17:13.591Z,2.63
2022-07-29T05:19:40.902Z,2.88
2022-07-29T05:22:08.352Z,3.22
2022-07-29T05:24:35.749Z,3.33
2022-07-29T05:27:03.796Z,3.42
2022-07-29T05:29:43.176Z,3.75
2022-07-29T05:32:13.651Z,3.03
2022-07-29T05:34:50.928Z,2.90
2022-07-29T05:37:20.731Z,3.30
2022-07-29T05:39:50.497Z,3.63
2022-07-29T05:42:24.638Z,3.78
2022-07-29T05:44:52.374Z,3.10
2022-07-29T05:47:19.839Z,3.25
2022-07-29T05:49:47.223Z,3.50
2022-07-29T05:52:14.619Z,3.03
2022-07-29T05:54:42.199Z,3.42
2022-07-29T05:57:09.745Z,3.03
2022-07-29T05:59:38.425Z,3.00
2022-07-29T06:02:06.184Z,3.30
2022-07-29T06:04:34.687Z,3.53
2022-07-29T06:07:02.764Z,3.30
2022-07-29T06:09:30.504Z,3.05
2022-07-29T06:11:58.947Z,3.13
2022-07-29T06:14:27.584Z,2.90
2022-07-29T06:16:55.459Z,3.10
2022-07-29T06:19:22.762Z,3.30
2022-07-29T06:21:50.215Z,3.83
2022-07-29T06:24:18.517Z,3.67
2022-07-29T06:26:46.416Z,3.40
2022-07-29T06:29:13.731Z,2.92
2022-07-29T06:31:41.133Z,3.35
2022-07-29T06:34:08.501Z,4.03
2022-07-29T06:36:39.754Z,3.45
2022-07-29T06:39:09.304Z,3.25
2022-07-29T06:41:39.206Z,2.97
2022-07-29T06:44:10.496Z,3.55
2022-07-29T06:46:37.949Z,3.28
2022-07-29T06:49:05.773Z,2.90
2022-07-29T06:51:33.239Z,3.78
2022-07-29T06:54:03.399Z,3.45
2022-07-29T06:56:38.541Z,3.70
2022-07-29T06:59:08.635Z,3.78
2022-07-29T07:01:41.031Z,3.60
2022-07-29T07:04:09.764Z,3.83
2022-07-29T07:06:37.897Z,4.25
2022-07-29T07:09:05.308Z,3.58
2022-07-29T07:11:32.728Z,4.35
2022-07-29T07:14:03.386Z,4.28
2022-07-29T07:16:42.103Z,3.88
2022-07-29T07:19:09.473Z,3.58
2022-07-29T07:21:36.893Z,3.83
2022-07-29T07:24:04.537Z,3.65
2022-07-29T07:26:31.927Z,3.88
2022-07-29T07:29:00.009Z,3.75
2022-07-29T07:31:27.427Z,4.03
2022-07-29T07:33:54.980Z,3.60
2022-07-29T07:36:23.002Z,3.97
2022-07-29T07:38:50.551Z,4.10
2022-07-29T07:41:17.940Z,4.50
2022-07-29T07:43:45.260Z,4.22
2022-07-29T07:46:12.711Z,4.80
2022-07-29T07:48:40.185Z,4.80
2022-07-29T07:51:08.252Z,5.60
2022-07-29T07:53:36.106Z,5.03
2022-07-29T07:56:10.861Z,6.10
2022-07-29T07:58:39.820Z,5.50
2022-07-29T08:01:07.904Z,5.07
2022-07-29T08:03:35.923Z,5.47
2022-07-29T08:06:04.765Z,4.35
2022-07-29T08:08:32.211Z,4.68
2022-07-29T08:11:02.248Z,5.10
2022-07-29T08:13:32.489Z,4.68
2022-07-29T08:16:02.157Z,4.10
2022-07-29T08:18:32.203Z,4.93
2022-07-29T08:20:59.854Z,4.63
2022-07-29T08:23:31.631Z,4.88
2022-07-29T08:26:14.128Z,4.28
2022-07-29T08:28:46.533Z,4.35
2022-07-29T08:31:14.910Z,3.75
2022-07-29T08:33:42.985Z,4.13
2022-07-29T08:36:10.639Z,3.17
2022-07-29T08:38:37.993Z,3.25
2022-07-29T08:41:05.558Z,3.22
2022-07-29T08:43:33.095Z,3.67
2022-07-29T08:46:01.616Z,3.15
2022-07-29T08:48:29.027Z,3.90
2022-07-29T08:50:57.794Z,3.67
2022-07-29T08:53:27.680Z,3.70
2022-07-29T08:55:55.526Z,3.17
2022-07-29T08:58:24.619Z,3.53
2022-07-29T09:00:55.322Z,3.25
2022-07-29T09:03:31.007Z,3.60
2022-07-29T09:06:00.298Z,3.00
2022-07-29T09:08:28.365Z,3.67
2022-07-29T09:10:59.351Z,3.60
2022-07-29T09:13:27.480Z,3.45
2022-07-29T09:15:54.997Z,3.70
2022-07-29T09:18:37.192Z,4.30
2022-07-29T09:21:24.998Z,3.63
2022-07-29T09:24:15.109Z,3.90
2022-07-29T09:26:44.809Z,3.28
2022-07-29T09:29:14.613Z,3.83
2022-07-29T09:31:45.276Z,3.75
2022-07-29T09:34:15.190Z,4.30
2022-07-29T09:36:48.121Z,4.35
2022-07-29T09:39:17.800Z,4.53
2022-07-29T09:41:51.306Z,3.85
2022-07-29T09:44:19.280Z,4.13
2022-07-29T09:46:59.351Z,4.35
2022-07-29T09:49:27.241Z,5.03
2022-07-29T09:52:21.296Z,5.25
2022-07-29T09:54:48.809Z,4.22
2022-07-29T09:57:30.555Z,3.85
2022-07-29T10:00:06.910Z,3.47
2022-07-29T10:02:43.448Z,3.65
2022-07-29T10:05:25.287Z,3.70
2022-07-29T10:07:59.103Z,4.00
2022-07-29T10:10:38.254Z,3.72
2022-07-29T10:13:13.566Z,4.05
2022-07-29T10:15:46.064Z,3.97
2022-07-29T10:18:18.059Z,3.72
2022-07-29T10:20:45.495Z,4.22
2022-07-29T10:23:13.669Z,3.60
2022-07-29T10:25:45.969Z,4.55
2022-07-29T10:28:16.572Z,3.80
2022-07-29T10:30:46.240Z,3.20
2022-07-29T10:33:16.684Z,4.00
2022-07-29T10:36:12.779Z,3.67
2022-07-29T10:39:13.371Z,3.42
2022-07-29T10:42:00.062Z,3.22
2022-07-29T10:44:28.478Z,3.08
2022-07-29T10:46:56.199Z,3.65
2022-07-29T10:49:27.927Z,3.47
2022-07-29T10:52:06.115Z,2.97
2022-07-29T10:54:44.531Z,3.15
2022-07-29T10:57:53.882Z,3.40
2022-07-29T11:00:29.639Z,2.80
2022-07-29T11:02:59.188Z,3.00
2022-07-29T11:05:32.221Z,3.85
2022-07-29T11:08:20.500Z,3.25
2022-07-29T11:10:53.013Z,3.75
2022-07-29T11:13:42.322Z,4.00
2022-07-29T11:16:10.174Z,4.10
2022-07-29T11:19:30.719Z,4.22
2022-07-29T11:21:59.140Z,3.35
2022-07-29T11:24:35.538Z,4.10
2022-07-29T11:27:20.663Z,3.97
2022-07-29T11:29:50.566Z,4.03
2022-07-29T11:32:22.693Z,3.63
2022-07-29T11:35:36.885Z,3.35
2022-07-29T11:38:28.086Z,4.95
2022-07-29T11:41:25.485Z,4.15
2022-07-29T11:43:54.207Z,3.30
2022-07-29T11:46:57.539Z,4.47
2022-07-29T11:49:32.024Z,4.97
2022-07-29T11:52:04.884Z,5.15
2022-07-29T11:54:38.852Z,4.57
2022-07-29T11:57:22.151Z,5.57
2022-07-29T11:59:49.737Z,4.63
2022-07-29T12:02:37.247Z,5.45
2022-07-29T12:05:10.809Z,5.00
2022-07-29T12:07:53.229Z,4.88
2022-07-29T12:10:30.400Z,4.68
2022-07-29T12:12:58.170Z,5.05
2022-07-29T12:15:39.150Z,5.47
2022-07-29T12:18:19.039Z,4.43
2022-07-29T12:20:47.633Z,4.53
2022-07-29T12:23:17.369Z,4.45
2022-07-29T12:25:49.963Z,4.50
2022-07-29T12:28:26.394Z,5.38
2022-07-29T12:30:54.464Z,5.18
2022-07-29T12:33:23.121Z,4.93
2022-07-29T12:36:03.780Z,5.13
2022-07-29T12:38:37.290Z,5.82
2022-07-29T12:41:05.074Z,5.40
2022-07-29T12:43:32.805Z,5.25
2022-07-29T12:46:16.029Z,5.03
2022-07-29T12:48:44.390Z,5.75
2022-07-29T12:51:15.245Z,5.13
2022-07-29T12:53:43.206Z,5.88
2022-07-29T12:56:43.600Z,5.18
2022-07-29T12:59:16.325Z,5.07
2022-07-29T13:01:44.187Z,5.18
2022-07-29T13:04:12.093Z,5.45
2022-07-29T13:06:39.549Z,4.80
2022-07-29T13:09:11.738Z,5.07
2022-07-29T13:11:44.029Z,5.63
2022-07-29T13:14:30.272Z,5.13
2022-07-29T13:17:32.728Z,5.40
2022-07-29T13:20:10.240Z,5.38
2022-07-29T13:22:37.548Z,5.50
2022-07-29T13:25:07.534Z,5.47
2022-07-29T13:27:38.128Z,5.68
2022-07-29T13:30:08.284Z,5.53
2022-07-29T13:32:37.283Z,4.88
2022-07-29T13:35:07.859Z,5.80
2022-07-29T13:37:39.421Z,6.22
2022-07-29T13:40:08.855Z,5.32
2022-07-29T13:42:36.473Z,5.72
2022-07-29T13:45:05.439Z,5.15
2022-07-29T13:47:33.399Z,5.97
2022-07-29T13:50:06.544Z,6.05
2022-07-29T13:52:34.909Z,5.97
2022-07-29T13:55:03.142Z,5.07
2022-07-29T13:57:30.867Z,5.10
2022-07-29T13:59:58.329Z,6.20
2022-07-29T14:02:26.270Z,4.20
2022-07-29T14:04:55.189Z,3.97
2022-07-29T14:07:22.970Z,4.25
2022-07-29T14:09:51.083Z,3.67
2022-07-29T14:12:18.956Z,3.35
2022-07-29T14:14:47.302Z,3.03
2022-07-29T14:17:15.719Z,2.80
2022-07-29T14:19:43.217Z,3.25
2022-07-29T14:22:10.935Z,2.97
2022-07-29T14:24:38.561Z,2.72
2022-07-29T14:27:07.402Z,2.47
2022-07-29T14:29:37.765Z,2.47
2022-07-29T14:32:08.185Z,3.22
2022-07-29T14:34:37.508Z,3.08
2022-07-29T14:37:06.479Z,2.60
2022-07-29T14:39:38.138Z,2.92
2022-07-29T14:42:11.607Z,2.95
2022-07-29T14:44:42.154Z,3.10
2022-07-29T14:47:10.281Z,2.97
2022-07-29T14:49:37.751Z,3.33
2022-07-29T14:52:05.466Z,3.60
2022-07-29T14:54:33.259Z,2.90
2022-07-29T14:57:00.690Z,2.90
2022-07-29T14:59:28.118Z,3.25
2022-07-29T15:01:55.605Z,2.95
2022-07-29T15:04:23.047Z,2.63
2022-07-29T15:06:50.692Z,2.58
2022-07-29T15:09:18.114Z,2.70
2022-07-29T15:11:45.536Z,3.35
2022-07-29T15:14:12.879Z,2.97
2022-07-29T15:16:43.980Z,2.45
2022-07-29T15:19:14.447Z,1.95
2022-07-29T15:21:48.864Z,2.95
2022-07-29T15:24:20.233Z,2.30
2022-07-29T15:26:48.218Z,1.83
2022-07-29T15:29:16.048Z,2.45
2022-07-29T15:31:44.236Z,2.40
2022-07-29T15:34:11.603Z,2.03
2022-07-29T15:36:54.575Z,1.80
2022-07-29T15:39:22.817Z,2.75
2022-07-29T15:41:50.457Z,2.33
2022-07-29T15:44:18.299Z,2.22
2022-07-29T15:47:03.915Z,2.50
2022-07-29T15:49:47.243Z,2.20
2022-07-29T15:54:56.104Z,2.25
2022-07-29T15:57:30.816Z,2.25
2022-07-29T15:59:58.181Z,2.67
2022-07-29T16:02:25.626Z,2.88
2022-07-29T16:04:52.976Z,2.22
2022-07-29T16:07:20.331Z,2.45
2022-07-29T16:09:52.793Z,2.53
2022-07-29T16:12:20.669Z,2.53
2022-07-29T16:14:49.366Z,2.53
2022-07-29T16:17:17.541Z,4.80
2022-07-29T16:19:45.444Z,2.20
2022-07-29T16:22:13.504Z,2.92
2022-07-29T16:24:40.939Z,1.95
2022-07-29T16:27:08.322Z,2.60
2022-07-29T16:29:37.045Z,2.28
2022-07-29T16:32:06.101Z,3.10
2022-07-29T16:34:33.674Z,2.13
2022-07-29T16:37:01.285Z,1.85
2022-07-29T16:39:29.314Z,2.40
2022-07-29T16:42:00.216Z,4.93
2022-07-29T16:44:28.574Z,8.05
2022-07-29T16:46:58.950Z,7.20
2022-07-29T16:49:28.163Z,3.72
2022-07-29T16:51:55.600Z,2.95
2022-07-29T16:54:23.025Z,2.58
2022-07-29T16:56:50.441Z,2.30
2022-07-29T16:59:17.755Z,2.08
2022-07-29T17:01:45.148Z,2.58
2022-07-29T17:04:14.844Z,2.63
2022-07-29T17:06:42.548Z,9.27
2022-07-29T17:09:12.091Z,7.28
2022-07-29T17:11:52.883Z,6.80
2022-07-29T17:14:27.674Z,3.78
2022-07-29T17:17:01.255Z,20.55
2022-07-29T17:19:31.014Z,5.43
2022-07-29T17:22:06.796Z,15.15
2022-07-29T17:24:38.828Z,4.15
2022-07-29T17:27:06.475Z,2.63
2022-07-29T17:29:34.985Z,2.65
2022-07-29T17:32:02.393Z,2.38
2022-07-29T17:34:29.704Z,3.10
2022-07-29T17:36:57.948Z,2.50
2022-07-29T17:39:25.454Z,2.13
2022-07-29T17:41:52.737Z,2.80
2022-07-29T17:44:20.031Z,2.25
2022-07-29T17:46:47.543Z,2.30
2022-07-29T17:49:14.971Z,2.50
2022-07-29T17:51:42.386Z,2.88
2022-07-29T17:54:09.747Z,3.67
2022-07-29T17:56:37.123Z,2.45
2022-07-29T17:59:06.670Z,2.05
2022-07-29T18:01:34.411Z,2.33
2022-07-29T18:04:04.919Z,2.00
2022-07-29T18:06:32.285Z,2.13
2022-07-29T18:08:59.794Z,2.10
2022-07-29T18:11:27.601Z,2.00
2022-07-29T18:13:54.951Z,2.13
2022-07-29T18:16:22.391Z,2.20
2022-07-29T18:18:49.764Z,1.85
2022-07-29T18:21:17.158Z,2.08
2022-07-29T18:24:04.625Z,2.10
2022-07-29T18:26:32.135Z,2.30
2022-07-29T18:28:59.900Z,1.85
2022-07-29T18:31:27.538Z,2.00
2022-07-29T18:33:58.376Z,2.00
2022-07-29T18:36:27.330Z,2.05
2022-07-29T18:38:54.706Z,2.35
2022-07-29T18:41:22.019Z,2.47
2022-07-29T18:43:49.372Z,2.50
2022-07-29T18:46:16.783Z,2.38
2022-07-29T18:48:44.249Z,2.38
2022-07-29T18:51:11.694Z,2.10
2022-07-29T18:53:39.143Z,2.65
2022-07-29T18:56:06.842Z,2.40
2022-07-29T18:58:34.200Z,2.15
2022-07-29T19:01:02.231Z,2.10
2022-07-29T19:03:29.564Z,1.92
2022-07-29T19:05:56.878Z,2.78
2022-07-29T19:08:24.175Z,2.65
2022-07-29T19:10:53.295Z,2.35
2022-07-29T19:13:20.695Z,2.28
2022-07-29T19:15:48.181Z,2.60
2022-07-29T19:18:15.629Z,2.80
2022-07-29T19:20:42.999Z,2.83
2022-07-29T19:23:10.492Z,3.10
2022-07-29T19:25:53.498Z,2.80
2022-07-29T19:28:22.011Z,2.50
2022-07-29T19:30:49.829Z,2.83
2022-07-29T19:33:18.897Z,2.80
2022-07-29T19:35:49.318Z,2.60
2022-07-29T19:38:18.928Z,2.88
2022-07-29T19:40:46.228Z,2.67
2022-07-29T19:43:51.959Z,3.17
2022-07-29T19:46:01.189Z,3.45
2022-07-29T19:48:28.610Z,2.67
2022-07-29T19:50:55.997Z,2.67
2022-07-29T19:53:23.468Z,3.42
2022-07-29T19:55:50.833Z,2.65
2022-07-29T19:58:18.156Z,3.08
2022-07-29T20:00:50.580Z,3.13
2022-07-29T20:03:18.047Z,3.20
2022-07-29T20:05:47.664Z,2.78
2022-07-29T20:08:15.519Z,3.22
2022-07-29T20:10:43.150Z,2.90
2022-07-29T20:13:10.483Z,3.05
2022-07-29T20:15:37.858Z,3.13
2022-07-29T20:18:05.299Z,2.83
2022-07-29T20:20:32.695Z,2.97
2022-07-29T20:23:01.034Z,3.55
2022-07-29T20:25:28.411Z,3.22
2022-07-29T20:27:55.778Z,2.90
2022-07-29T20:30:23.392Z,2.80
2022-07-29T20:32:50.920Z,3.75
2022-07-29T20:35:19.815Z,4.07
2022-07-29T20:37:52.030Z,3.53
2022-07-29T20:40:25.501Z,4.30
2022-07-29T20:42:53.819Z,4.40
2022-07-29T20:45:21.905Z,4.78
2022-07-29T20:47:50.635Z,4.45
2022-07-29T20:50:19.056Z,4.70
2022-07-29T20:52:46.411Z,5.25
2022-07-29T20:55:13.887Z,4.10
2022-07-29T20:57:41.268Z,4.10
2022-07-29T21:00:09.182Z,5.20
2022-07-29T21:02:37.036Z,4.80
2022-07-29T21:05:04.919Z,4.80
2022-07-29T21:07:32.264Z,6.07
2022-07-29T21:09:59.653Z,5.35
2022-07-29T21:12:28.627Z,5.35
2022-07-29T21:14:56.014Z,4.88
2022-07-29T21:17:23.427Z,4.40
2022-07-29T21:19:52.744Z,4.85
2022-07-29T21:22:22.201Z,4.78
2022-07-29T21:24:50.226Z,4.53
2022-07-29T21:27:38.484Z,4.43
2022-07-29T21:30:07.997Z,4.93
2022-07-29T21:32:36.103Z,4.78
2022-07-29T21:35:03.957Z,4.65
2022-07-29T21:37:49.851Z,5.68
2022-07-29T21:40:17.370Z,5.15
2022-07-29T21:42:44.751Z,4.95
2022-07-29T21:45:16.055Z,5.28
2022-07-29T21:47:43.498Z,5.25
2022-07-29T21:50:10.835Z,4.82
2022-07-29T21:52:38.890Z,5.00
2022-07-29T21:55:07.871Z,5.40
2022-07-29T21:57:37.984Z,6.60
2022-07-29T22:00:06.267Z,7.57
2022-07-29T22:02:39.843Z,7.00
2022-07-29T22:05:07.901Z,7.60
2022-07-29T22:07:55.979Z,6.93
2022-07-29T22:10:22.898Z,7.32
2022-07-29T22:12:52.007Z,7.53
2022-07-29T22:15:19.821Z,8.60
2022-07-29T22:17:47.222Z,9.25
2022-07-29T22:20:14.883Z,7.95
2022-07-29T22:22:42.590Z,7.47
2022-07-29T22:25:10.663Z,7.10
2022-07-29T22:27:38.577Z,7.43
2022-07-29T22:30:07.632Z,8.32
2022-07-29T22:32:34.989Z,7.80
2022-07-29T22:35:02.535Z,7.25
2022-07-29T22:37:29.935Z,6.45
2022-07-29T22:39:57.370Z,7.40
2022-07-29T22:42:24.689Z,7.30
2022-07-29T22:44:52.041Z,7.57
2022-07-29T22:47:45.780Z,7.88
2022-07-29T22:50:07.209Z,7.95
2022-07-29T22:52:34.634Z,8.30
2022-07-29T22:55:02.395Z,7.85
2022-07-29T22:57:29.814Z,8.60
2022-07-29T22:59:57.246Z,8.05
2022-07-29T23:02:24.601Z,8.38
2022-07-29T23:04:51.959Z,8.68
2022-07-29T23:07:19.368Z,7.28
2022-07-29T23:09:46.901Z,6.55
2022-07-29T23:12:14.286Z,6.85
2022-07-29T23:14:41.755Z,7.63
2022-07-29T23:17:09.137Z,6.97
2022-07-29T23:19:36.542Z,7.00
2022-07-29T23:22:03.949Z,7.43
2022-07-29T23:24:31.278Z,7.32
2022-07-29T23:26:58.975Z,6.75
2022-07-29T23:29:26.963Z,7.60
2022-07-29T23:31:54.354Z,7.00
2022-07-29T23:34:21.652Z,7.93
2022-07-29T23:36:48.954Z,6.88
2022-07-29T23:39:16.331Z,7.88
2022-07-29T23:41:43.724Z,7.47
2022-07-29T23:44:11.111Z,7.65
2022-07-29T23:46:38.573Z,6.90
2022-07-29T23:49:06.178Z,7.13
2022-07-29T23:51:33.515Z,7.85
2022-07-29T23:54:00.840Z,7.20
2022-07-29T23:56:28.171Z,7.50
2022-07-29T23:58:55.517Z,7.05
